createdAt,value
2023-05-05T00:01:09.972Z,15.08
2023-05-05T00:03:43.021Z,15.06
2023-05-05T00:06:16.060Z,15.02
2023-05-05T00:08:48.393Z,14.92
2023-05-05T00:11:20.565Z,14.96
2023-05-05T00:13:52.973Z,14.95
2023-05-05T00:16:25.439Z,14.93
2023-05-05T00:18:58.075Z,14.88
2023-05-05T00:21:31.156Z,14.88
2023-05-05T00:24:03.613Z,14.85
2023-05-05T00:26:36.176Z,14.88
2023-05-05T00:29:08.925Z,14.90
2023-05-05T00:31:41.592Z,14.92
2023-05-05T00:34:13.939Z,14.94
2023-05-05T00:36:46.495Z,14.96
2023-05-05T00:39:18.692Z,14.81
2023-05-05T00:41:50.926Z,14.99
2023-05-05T00:44:38.496Z,15.02
2023-05-05T00:47:11.322Z,15.06
2023-05-05T00:49:45.363Z,15.09
2023-05-05T00:52:17.997Z,15.00
2023-05-05T00:54:50.393Z,15.05
2023-05-05T00:57:23.429Z,15.09
2023-05-05T00:59:55.994Z,15.13
2023-05-05T01:02:31.163Z,15.13
2023-05-05T01:05:05.047Z,15.14
2023-05-05T01:07:48.426Z,15.06
2023-05-05T01:10:31.023Z,15.10
2023-05-05T01:13:14.291Z,15.11
2023-05-05T01:15:51.084Z,15.09
2023-05-05T01:18:33.440Z,15.08
2023-05-05T01:21:14.864Z,15.09
2023-05-05T01:24:17.990Z,15.10
2023-05-05T01:27:09.555Z,15.10
2023-05-05T01:30:02.501Z,15.09
2023-05-05T01:32:39.819Z,15.13
2023-05-05T01:35:19.569Z,15.14
2023-05-05T01:37:59.464Z,15.14
2023-05-05T01:40:38.990Z,15.12
2023-05-05T01:43:14.924Z,15.08
2023-05-05T01:45:49.220Z,15.07
2023-05-05T01:48:23.557Z,15.07
2023-05-05T01:50:56.131Z,15.01
2023-05-05T01:53:30.688Z,15.01
2023-05-05T01:56:05.054Z,15.03
2023-05-05T01:58:38.539Z,15.01
2023-05-05T02:01:12.328Z,15.00
2023-05-05T02:03:47.147Z,15.00
2023-05-05T02:06:22.097Z,14.98
2023-05-05T02:08:56.055Z,14.95
2023-05-05T02:11:30.224Z,14.94
2023-05-05T02:14:04.507Z,14.95
2023-05-05T02:16:41.267Z,14.95
2023-05-05T02:19:15.806Z,14.90
2023-05-05T02:21:50.133Z,14.91
2023-05-05T02:24:24.188Z,14.89
2023-05-05T02:26:59.712Z,14.89
2023-05-05T02:29:36.652Z,14.86
2023-05-05T02:32:16.396Z,14.82
2023-05-05T02:34:51.420Z,14.80
2023-05-05T02:37:28.659Z,14.77
2023-05-05T02:40:03.976Z,14.71
2023-05-05T02:42:41.172Z,14.70
2023-05-05T02:45:18.702Z,14.70
2023-05-05T02:47:52.872Z,14.59
2023-05-05T02:50:26.194Z,14.61
2023-05-05T02:53:08.421Z,14.57
2023-05-05T02:55:45.652Z,14.52
2023-05-05T02:58:26.305Z,14.37
2023-05-05T03:01:07.697Z,14.39
2023-05-05T03:03:46.637Z,14.39
2023-05-05T03:06:25.603Z,14.42
2023-05-05T03:09:09.896Z,14.44
2023-05-05T03:11:48.858Z,14.44
2023-05-05T03:14:23.152Z,14.39
2023-05-05T03:16:58.052Z,14.41
2023-05-05T03:19:33.273Z,14.39
2023-05-05T03:22:06.388Z,14.41
2023-05-05T03:24:39.411Z,14.32
2023-05-05T03:27:14.579Z,14.33
2023-05-05T03:29:49.225Z,14.27
2023-05-05T03:32:24.117Z,14.25
2023-05-05T03:35:00.986Z,14.20
2023-05-05T03:37:39.751Z,14.22
2023-05-05T03:40:14.572Z,14.21
2023-05-05T03:42:49.384Z,14.19
2023-05-05T03:45:23.928Z,14.16
2023-05-05T03:47:57.259Z,14.12
2023-05-05T03:50:32.188Z,14.09
2023-05-05T03:53:04.949Z,14.11
2023-05-05T03:55:38.140Z,14.08
2023-05-05T03:58:11.220Z,14.07
2023-05-05T04:00:44.974Z,14.02
2023-05-05T04:03:18.918Z,14.08
2023-05-05T04:05:52.076Z,14.07
2023-05-05T04:08:25.758Z,14.07
2023-05-05T04:10:58.699Z,13.94
2023-05-05T04:13:31.637Z,13.99
2023-05-05T04:16:05.692Z,14.02
2023-05-05T04:18:38.172Z,14.04
2023-05-05T04:21:11.040Z,14.05
2023-05-05T04:23:44.002Z,14.07
2023-05-05T04:26:17.364Z,14.09
2023-05-05T04:28:50.632Z,14.11
2023-05-05T04:31:23.762Z,14.15
2023-05-05T04:33:57.590Z,14.14
2023-05-05T04:36:31.889Z,14.19
2023-05-05T04:39:07.200Z,14.23
2023-05-05T04:41:41.806Z,14.24
2023-05-05T04:44:17.115Z,14.24
2023-05-05T04:46:53.030Z,14.18
2023-05-05T04:49:26.659Z,14.25
2023-05-05T04:52:02.382Z,14.27
2023-05-05T04:54:38.327Z,14.31
2023-05-05T04:57:10.693Z,14.32
2023-05-05T04:59:44.993Z,14.28
2023-05-05T05:02:18.544Z,14.37
2023-05-05T05:04:51.082Z,14.39
2023-05-05T05:07:23.371Z,14.45
2023-05-05T05:09:56.466Z,14.48
2023-05-05T05:12:31.025Z,14.46
2023-05-05T05:15:08.453Z,14.48
2023-05-05T05:17:40.888Z,14.52
2023-05-05T05:20:14.373Z,14.52
2023-05-05T05:22:46.872Z,14.55
2023-05-05T05:25:22.915Z,14.58
2023-05-05T05:28:06.124Z,14.57
2023-05-05T05:30:42.481Z,14.59
2023-05-05T05:33:17.083Z,14.64
2023-05-05T05:35:50.254Z,14.67
2023-05-05T05:38:24.550Z,14.67
2023-05-05T05:40:58.099Z,14.68
2023-05-05T05:43:34.250Z,14.80
2023-05-05T05:46:08.915Z,14.85
2023-05-05T05:48:42.432Z,14.90
2023-05-05T05:51:19.562Z,14.85
2023-05-05T05:53:52.747Z,14.86
2023-05-05T05:56:25.003Z,14.93
2023-05-05T05:59:01.571Z,14.89
2023-05-05T06:01:33.975Z,14.90
2023-05-05T06:04:07.101Z,14.94
2023-05-05T06:06:39.786Z,15.01
2023-05-05T06:09:11.950Z,15.08
2023-05-05T06:11:44.237Z,15.06
2023-05-05T06:14:18.009Z,15.08
2023-05-05T06:16:52.396Z,14.96
2023-05-05T06:19:26.302Z,15.02
2023-05-05T06:21:58.607Z,15.01
2023-05-05T06:24:32.114Z,15.06
2023-05-05T06:27:05.668Z,15.12
2023-05-05T06:29:37.700Z,15.19
2023-05-05T06:32:10.710Z,15.20
2023-05-05T06:34:44.785Z,15.26
2023-05-05T06:37:17.185Z,15.33
2023-05-05T06:39:51.084Z,15.40
2023-05-05T06:42:23.450Z,15.44
2023-05-05T06:44:56.970Z,15.51
2023-05-05T06:47:29.149Z,15.54
2023-05-05T06:50:01.440Z,15.64
2023-05-05T06:52:33.795Z,15.73
2023-05-05T06:55:06.989Z,15.84
2023-05-05T06:57:39.269Z,15.81
2023-05-05T07:00:14.972Z,15.88
2023-05-05T07:02:47.774Z,15.93
2023-05-05T07:05:20.401Z,16.00
2023-05-05T07:07:56.576Z,15.94
2023-05-05T07:10:28.986Z,16.02
2023-05-05T07:13:01.427Z,16.11
2023-05-05T07:15:33.512Z,16.27
2023-05-05T07:18:06.064Z,16.26
2023-05-05T07:20:38.440Z,16.34
2023-05-05T07:23:11.336Z,16.43
2023-05-05T07:25:43.970Z,16.49
2023-05-05T07:28:16.559Z,16.57
2023-05-05T07:30:49.130Z,16.62
2023-05-05T07:33:21.554Z,16.55
2023-05-05T07:35:54.018Z,16.64
2023-05-05T07:38:26.721Z,16.79
2023-05-05T07:40:58.959Z,16.88
2023-05-05T07:43:31.152Z,16.92
2023-05-05T07:46:03.591Z,16.96
2023-05-05T07:48:35.899Z,17.00
2023-05-05T07:51:08.240Z,17.11
2023-05-05T07:53:41.990Z,17.16
2023-05-05T07:56:14.301Z,17.17
2023-05-05T07:58:46.823Z,17.18
2023-05-05T08:01:19.420Z,17.22
2023-05-05T08:03:51.960Z,17.20
2023-05-05T08:06:25.342Z,17.15
2023-05-05T08:08:58.178Z,17.20
2023-05-05T08:11:30.696Z,17.11
2023-05-05T08:14:02.954Z,17.20
2023-05-05T08:16:35.510Z,17.16
2023-05-05T08:19:14.819Z,17.22
2023-05-05T08:21:53.989Z,17.21
2023-05-05T08:24:26.211Z,17.26
2023-05-05T08:26:58.987Z,17.14
2023-05-05T08:29:31.139Z,17.31
2023-05-05T08:32:03.613Z,17.35
2023-05-05T08:34:36.299Z,17.43
2023-05-05T08:37:08.796Z,17.46
2023-05-05T08:39:41.358Z,17.52
2023-05-05T08:42:19.793Z,17.61
2023-05-05T08:45:01.280Z,17.71
2023-05-05T08:47:33.967Z,17.75
2023-05-05T08:50:07.366Z,17.63
2023-05-05T08:52:44.537Z,17.74
2023-05-05T08:55:26.848Z,17.79
2023-05-05T08:58:01.265Z,17.85
2023-05-05T09:00:34.766Z,17.76
2023-05-05T09:03:08.836Z,17.86
2023-05-05T09:05:43.349Z,17.89
2023-05-05T09:08:17.380Z,17.95
2023-05-05T09:10:52.390Z,17.99
2023-05-05T09:13:24.584Z,18.09
2023-05-05T09:15:56.879Z,18.19
2023-05-05T09:18:29.214Z,18.28
2023-05-05T09:21:02.274Z,18.26
2023-05-05T09:23:34.386Z,18.22
2023-05-05T09:26:08.977Z,18.42
2023-05-05T09:28:52.473Z,18.35
2023-05-05T09:31:25.053Z,18.48
2023-05-05T09:34:00.952Z,18.45
2023-05-05T09:36:49.087Z,18.61
2023-05-05T09:39:22.417Z,18.66
2023-05-05T09:41:54.957Z,18.90
2023-05-05T09:44:37.936Z,18.95
2023-05-05T09:47:22.370Z,19.08
2023-05-05T09:50:01.945Z,19.18
2023-05-05T09:52:34.733Z,19.35
2023-05-05T09:55:09.392Z,19.52
2023-05-05T09:57:41.756Z,19.47
2023-05-05T10:00:16.843Z,19.50
2023-05-05T10:02:49.158Z,19.46
2023-05-05T10:05:21.733Z,19.57
2023-05-05T10:07:54.215Z,19.57
2023-05-05T10:10:28.631Z,19.55
2023-05-05T10:12:59.981Z,19.60
2023-05-05T10:15:32.319Z,19.70
2023-05-05T10:18:08.130Z,19.70
2023-05-05T10:20:43.270Z,19.88
2023-05-05T10:23:16.081Z,19.86
2023-05-05T10:25:52.129Z,19.93
2023-05-05T10:28:33.696Z,20.00
2023-05-05T10:31:24.526Z,20.01
2023-05-05T10:34:04.491Z,20.22
2023-05-05T10:36:38.921Z,20.26
2023-05-05T10:39:12.536Z,20.34
2023-05-05T10:41:46.368Z,20.42
2023-05-05T10:44:19.316Z,20.49
2023-05-05T10:46:52.527Z,20.60
2023-05-05T10:49:34.496Z,20.76
2023-05-05T10:52:15.311Z,20.82
2023-05-05T10:54:51.256Z,20.97
2023-05-05T10:57:27.587Z,21.00
2023-05-05T10:59:59.875Z,21.13
2023-05-05T11:02:32.857Z,21.21
2023-05-05T11:05:18.122Z,21.26
2023-05-05T11:07:51.836Z,21.30
2023-05-05T11:10:24.192Z,21.43
2023-05-05T11:13:21.228Z,21.58
2023-05-05T11:15:55.505Z,21.55
2023-05-05T11:18:44.579Z,21.76
2023-05-05T11:21:18.819Z,21.79
2023-05-05T11:23:52.949Z,21.81
2023-05-05T11:26:52.329Z,21.92
2023-05-05T11:29:24.941Z,21.93
2023-05-05T11:32:16.911Z,22.08
2023-05-05T11:34:53.477Z,22.15
2023-05-05T11:37:28.198Z,22.28
2023-05-05T11:40:12.420Z,22.42
2023-05-05T11:42:44.817Z,22.49
2023-05-05T11:45:27.540Z,22.42
2023-05-05T11:48:27.303Z,22.57
2023-05-05T11:51:02.346Z,22.69
2023-05-05T11:53:35.157Z,22.68
2023-05-05T11:56:12.064Z,22.77
2023-05-05T11:58:44.606Z,22.84
2023-05-05T12:01:17.187Z,22.95
2023-05-05T12:03:49.678Z,22.92
2023-05-05T12:06:22.305Z,23.04
2023-05-05T12:08:55.000Z,23.06
2023-05-05T12:11:27.422Z,23.09
2023-05-05T12:14:12.874Z,23.11
2023-05-05T12:16:57.063Z,23.10
2023-05-05T12:19:33.139Z,23.18
2023-05-05T12:22:05.943Z,23.22
2023-05-05T12:24:38.322Z,23.29
2023-05-05T12:27:14.594Z,23.34
2023-05-05T12:29:47.098Z,23.30
2023-05-05T12:32:25.090Z,23.31
2023-05-05T12:34:58.801Z,23.24
2023-05-05T12:37:31.462Z,23.30
2023-05-05T12:40:06.310Z,23.34
2023-05-05T12:42:48.402Z,23.44
2023-05-05T12:45:20.569Z,23.53
2023-05-05T12:47:53.358Z,23.55
2023-05-05T12:50:33.722Z,23.51
2023-05-05T12:53:06.025Z,23.63
2023-05-05T12:55:41.372Z,23.56
2023-05-05T12:58:13.916Z,23.51
2023-05-05T13:00:46.565Z,23.50
2023-05-05T13:03:24.939Z,23.55
2023-05-05T13:05:57.456Z,23.47
2023-05-05T13:08:46.233Z,23.46
2023-05-05T13:11:18.595Z,23.46
2023-05-05T13:13:50.985Z,23.42
2023-05-05T13:16:23.770Z,23.45
2023-05-05T13:18:57.858Z,23.54
2023-05-05T13:21:30.327Z,23.63
2023-05-05T13:24:19.830Z,23.64
2023-05-05T13:26:55.919Z,23.57
2023-05-05T13:29:31.277Z,23.58
2023-05-05T13:32:04.198Z,23.65
2023-05-05T13:34:36.406Z,23.66
2023-05-05T13:37:08.782Z,23.66
2023-05-05T13:39:41.264Z,23.71
2023-05-05T13:42:13.529Z,23.56
2023-05-05T13:44:46.047Z,23.38
2023-05-05T13:47:18.732Z,23.35
2023-05-05T13:49:51.445Z,23.35
2023-05-05T13:52:23.748Z,23.32
2023-05-05T13:54:56.103Z,23.18
2023-05-05T13:57:28.601Z,22.95
2023-05-05T14:00:01.128Z,22.89
2023-05-05T14:02:33.499Z,23.03
2023-05-05T14:05:06.536Z,23.07
2023-05-05T14:07:38.803Z,22.92
2023-05-05T14:10:12.091Z,22.80
2023-05-05T14:12:44.486Z,22.74
2023-05-05T14:15:17.094Z,22.71
2023-05-05T14:17:49.641Z,22.50
2023-05-05T14:20:22.102Z,22.39
2023-05-05T14:22:54.945Z,22.35
2023-05-05T14:25:27.294Z,22.32
2023-05-05T14:27:59.478Z,22.27
2023-05-05T14:30:31.580Z,22.29
2023-05-05T14:33:04.118Z,22.26
2023-05-05T14:35:36.260Z,22.27
2023-05-05T14:38:08.569Z,22.33
2023-05-05T14:40:41.052Z,22.30
2023-05-05T14:43:13.424Z,22.22
2023-05-05T14:45:45.907Z,22.18
2023-05-05T14:48:21.881Z,22.18
2023-05-05T14:50:54.629Z,22.11
2023-05-05T14:53:27.185Z,22.16
2023-05-05T14:55:59.381Z,22.26
2023-05-05T14:58:31.754Z,22.30
2023-05-05T15:01:04.998Z,22.27
2023-05-05T15:03:37.680Z,22.20
2023-05-05T15:06:10.345Z,22.11
2023-05-05T15:08:42.720Z,22.01
2023-05-05T15:11:14.958Z,22.03
2023-05-05T15:13:47.246Z,21.94
2023-05-05T15:16:19.829Z,21.83
2023-05-05T15:18:52.394Z,21.74
2023-05-05T15:21:24.891Z,21.69
2023-05-05T15:23:57.349Z,21.66
2023-05-05T15:26:29.727Z,21.44
2023-05-05T15:29:02.196Z,21.56
2023-05-05T15:31:34.843Z,21.57
2023-05-05T15:34:07.013Z,21.42
2023-05-05T15:36:39.543Z,21.42
2023-05-05T15:39:12.015Z,21.43
2023-05-05T15:41:44.244Z,21.25
2023-05-05T15:44:16.630Z,21.24
2023-05-05T15:46:50.505Z,21.10
2023-05-05T15:49:23.224Z,21.07
2023-05-05T15:51:56.056Z,20.92
2023-05-05T15:54:28.491Z,20.90
2023-05-05T15:57:00.853Z,20.82
2023-05-05T15:59:33.897Z,20.66
2023-05-05T16:02:06.975Z,20.54
2023-05-05T16:04:39.258Z,20.55
2023-05-05T16:07:11.681Z,20.40
2023-05-05T16:09:44.481Z,20.46
2023-05-05T16:12:16.858Z,20.43
2023-05-05T16:14:49.404Z,20.37
2023-05-05T16:17:22.343Z,20.43
2023-05-05T16:19:55.194Z,20.42
2023-05-05T16:22:27.592Z,20.44
2023-05-05T16:24:59.812Z,20.39
2023-05-05T16:27:32.212Z,20.40
2023-05-05T16:30:04.639Z,20.31
2023-05-05T16:32:37.185Z,20.33
2023-05-05T16:35:11.904Z,20.38
2023-05-05T16:37:42.620Z,20.33
2023-05-05T16:40:15.936Z,20.23
2023-05-05T16:42:48.618Z,20.26
2023-05-05T16:45:20.824Z,20.05
2023-05-05T16:47:55.415Z,20.05
2023-05-05T16:50:27.917Z,19.93
2023-05-05T16:53:00.657Z,19.82
2023-05-05T16:55:33.041Z,19.78
2023-05-05T16:58:05.538Z,19.79
2023-05-05T17:00:37.907Z,19.59
2023-05-05T17:03:10.323Z,19.45
2023-05-05T17:05:42.786Z,19.49
2023-05-05T17:08:15.322Z,19.42
2023-05-05T17:10:48.054Z,19.24
2023-05-05T17:13:20.926Z,19.05
2023-05-05T17:15:53.276Z,19.02
2023-05-05T17:18:26.025Z,18.88
2023-05-05T17:20:58.339Z,18.73
2023-05-05T17:23:30.780Z,18.68
2023-05-05T17:26:03.201Z,18.73
2023-05-05T17:28:35.766Z,18.65
2023-05-05T17:31:08.321Z,18.45
2023-05-05T17:33:40.648Z,18.39
2023-05-05T17:36:13.524Z,18.27
2023-05-05T17:38:45.895Z,18.28
2023-05-05T17:41:18.229Z,18.18
2023-05-05T17:43:50.426Z,18.22
2023-05-05T17:46:22.853Z,18.24
2023-05-05T17:48:55.649Z,18.20
2023-05-05T17:51:28.668Z,18.08
2023-05-05T17:54:01.399Z,17.87
2023-05-05T17:56:34.904Z,17.77
2023-05-05T17:59:07.281Z,17.72
2023-05-05T18:01:39.576Z,17.69
2023-05-05T18:04:11.743Z,17.71
2023-05-05T18:06:44.329Z,17.55
2023-05-05T18:09:17.742Z,17.52
2023-05-05T18:11:52.424Z,17.54
2023-05-05T18:14:24.808Z,17.53
2023-05-05T18:16:56.908Z,17.35
2023-05-05T18:19:29.204Z,17.39
2023-05-05T18:22:01.694Z,17.04
2023-05-05T18:24:34.115Z,17.04
2023-05-05T18:27:08.465Z,17.16
2023-05-05T18:29:40.789Z,17.08
2023-05-05T18:32:13.310Z,17.03
2023-05-05T18:34:45.621Z,17.06
2023-05-05T18:37:17.879Z,17.02
2023-05-05T18:39:50.360Z,16.89
2023-05-05T18:42:22.574Z,16.91
2023-05-05T18:44:55.012Z,16.95
2023-05-05T18:47:28.684Z,16.97
2023-05-05T18:50:01.645Z,16.83
2023-05-05T18:52:34.359Z,16.72
2023-05-05T18:55:07.614Z,16.75
2023-05-05T18:57:40.760Z,16.73
2023-05-05T19:00:14.975Z,16.64
2023-05-05T19:02:47.353Z,16.76
2023-05-05T19:05:19.672Z,16.68
2023-05-05T19:07:52.083Z,16.60
2023-05-05T19:10:24.610Z,16.53
2023-05-05T19:12:57.180Z,16.56
2023-05-05T19:15:29.663Z,16.58
2023-05-05T19:18:02.322Z,16.34
2023-05-05T19:20:34.585Z,16.27
2023-05-05T19:23:07.340Z,16.27
2023-05-05T19:25:40.679Z,16.45
2023-05-05T19:28:13.156Z,16.34
2023-05-05T19:30:46.634Z,16.25
2023-05-05T19:33:19.321Z,16.12
2023-05-05T19:35:51.768Z,16.10
2023-05-05T19:38:24.113Z,16.05
2023-05-05T19:40:56.550Z,16.22
2023-05-05T19:43:28.914Z,16.12
2023-05-05T19:46:01.748Z,15.95
2023-05-05T19:48:34.064Z,16.06
2023-05-05T19:51:06.593Z,16.10
2023-05-05T19:53:40.215Z,16.03
2023-05-05T19:56:13.168Z,15.87
2023-05-05T19:58:57.723Z,15.95
2023-05-05T20:01:30.586Z,16.01
2023-05-05T20:04:03.477Z,16.06
2023-05-05T20:06:36.398Z,16.07
2023-05-05T20:09:08.896Z,15.85
2023-05-05T20:11:41.056Z,15.76
2023-05-05T20:14:13.344Z,15.74
2023-05-05T20:16:45.853Z,15.70
2023-05-05T20:19:18.277Z,15.75
2023-05-05T20:21:50.496Z,15.74
2023-05-05T20:24:23.494Z,15.65
2023-05-05T20:26:55.866Z,15.80
2023-05-05T20:29:28.115Z,15.68
2023-05-05T20:32:00.397Z,15.60
2023-05-05T20:34:32.673Z,15.66
2023-05-05T20:37:05.120Z,15.81
2023-05-05T20:39:37.885Z,15.72
2023-05-05T20:42:10.293Z,15.60
2023-05-05T20:44:43.002Z,15.65
2023-05-05T20:47:15.555Z,15.60
2023-05-05T20:49:48.167Z,15.39
2023-05-05T20:52:20.688Z,15.51
2023-05-05T20:54:52.912Z,15.52
2023-05-05T20:57:26.074Z,15.35
2023-05-05T20:59:58.847Z,15.39
2023-05-05T21:02:31.820Z,15.40
2023-05-05T21:05:04.380Z,15.44
2023-05-05T21:07:37.272Z,15.45
2023-05-05T21:10:12.169Z,15.48
2023-05-05T21:12:44.833Z,15.50
2023-05-05T21:15:17.724Z,15.38
2023-05-05T21:17:50.195Z,15.47
2023-05-05T21:20:22.789Z,15.48
2023-05-05T21:22:55.353Z,15.39
2023-05-05T21:25:28.798Z,15.29
2023-05-05T21:28:01.422Z,15.23
2023-05-05T21:30:33.731Z,14.89
2023-05-05T21:33:05.964Z,14.96
2023-05-05T21:35:38.248Z,15.03
2023-05-05T21:38:10.641Z,15.12
2023-05-05T21:40:43.065Z,15.02
2023-05-05T21:43:15.596Z,14.88
2023-05-05T21:45:47.886Z,14.74
2023-05-05T21:48:20.110Z,14.53
2023-05-05T21:50:52.339Z,14.81
2023-05-05T21:53:24.956Z,14.72
2023-05-05T21:55:57.763Z,14.74
2023-05-05T21:58:30.213Z,14.76
2023-05-05T22:01:02.594Z,14.89
2023-05-05T22:03:36.279Z,14.96
2023-05-05T22:06:08.882Z,14.79
2023-05-05T22:08:41.426Z,14.73
2023-05-05T22:11:13.853Z,14.75
2023-05-05T22:13:46.941Z,14.84
2023-05-05T22:16:19.643Z,14.86
2023-05-05T22:18:52.581Z,14.88
2023-05-05T22:21:25.006Z,14.89
2023-05-05T22:23:59.011Z,14.97
2023-05-05T22:26:31.765Z,14.87
2023-05-05T22:29:04.358Z,14.85
2023-05-05T22:31:36.870Z,14.84
2023-05-05T22:34:09.169Z,14.91
2023-05-05T22:36:42.329Z,14.93
2023-05-05T22:39:15.129Z,14.91
2023-05-05T22:41:47.618Z,14.84
2023-05-05T22:44:19.912Z,14.90
2023-05-05T22:46:52.575Z,14.77
2023-05-05T22:49:24.957Z,14.91
2023-05-05T22:51:58.543Z,14.86
2023-05-05T22:54:31.025Z,14.79
2023-05-05T22:57:03.854Z,14.81
2023-05-05T22:59:36.663Z,14.89
2023-05-05T23:02:09.238Z,14.76
2023-05-05T23:04:41.654Z,14.85
2023-05-05T23:07:14.286Z,14.91
2023-05-05T23:09:47.348Z,14.95
2023-05-05T23:12:19.616Z,14.98
2023-05-05T23:14:52.510Z,15.00
2023-05-05T23:17:24.784Z,15.01
2023-05-05T23:19:57.156Z,14.93
2023-05-05T23:22:30.109Z,15.02
2023-05-05T23:25:02.554Z,14.99
2023-05-05T23:27:35.118Z,14.94
2023-05-05T23:30:09.990Z,14.91
2023-05-05T23:32:40.923Z,14.99
2023-05-05T23:35:13.937Z,14.67
2023-05-05T23:37:46.343Z,14.59
2023-05-05T23:40:19.089Z,14.65
2023-05-05T23:42:51.406Z,14.78
2023-05-05T23:45:23.657Z,14.60
2023-05-05T23:47:56.494Z,14.66
2023-05-05T23:50:30.247Z,14.66
2023-05-05T23:53:02.701Z,14.76
2023-05-05T23:55:35.314Z,14.70
2023-05-05T23:58:07.792Z,14.71
